createdAt,value
2018-07-11T00:01:47.715Z,82.12
2018-07-11T00:04:16.840Z,82.51
2018-07-11T00:06:46.275Z,82.25
2018-07-11T00:09:15.114Z,82.60
2018-07-11T00:11:44.919Z,82.77
2018-07-11T00:14:13.755Z,82.43
2018-07-11T00:17:45.553Z,82.63
2018-07-11T00:20:15.043Z,83.03
2018-07-11T00:22:44.400Z,82.92
2018-07-11T00:25:13.927Z,82.65
2018-07-11T00:27:43.482Z,83.05
2018-07-11T00:30:12.695Z,83.66
2018-07-11T00:32:41.632Z,83.27
2018-07-11T00:35:10.514Z,83.69
2018-07-11T00:37:39.851Z,83.33
2018-07-11T00:40:08.628Z,83.65
2018-07-11T00:42:37.731Z,83.85
2018-07-11T00:45:06.674Z,83.61
2018-07-11T00:47:35.558Z,83.98
2018-07-11T00:50:04.672Z,83.95
2018-07-11T00:52:34.263Z,84.29
2018-07-11T00:55:03.125Z,84.13
2018-07-11T00:57:31.956Z,84.15
2018-07-11T01:00:01.300Z,84.36
2018-07-11T01:02:30.421Z,84.14
2018-07-11T01:05:03.227Z,84.01
2018-07-11T01:07:31.984Z,84.07
2018-07-11T01:10:01.254Z,83.74
2018-07-11T01:12:30.748Z,84.15
2018-07-11T01:14:59.627Z,84.13
2018-07-11T01:17:33.947Z,83.97
2018-07-11T01:20:03.091Z,84.37
2018-07-11T01:22:32.262Z,84.51
2018-07-11T01:25:01.547Z,84.20
2018-07-11T01:27:30.304Z,84.66
2018-07-11T01:29:59.726Z,84.26
2018-07-11T01:32:28.613Z,84.32
2018-07-11T01:34:58.245Z,84.13
2018-07-11T01:37:27.130Z,83.98
2018-07-11T01:39:56.772Z,84.29
2018-07-11T01:42:25.512Z,84.54
2018-07-11T01:44:54.800Z,83.75
2018-07-11T01:47:23.584Z,84.36
2018-07-11T01:49:52.726Z,84.33
2018-07-11T01:52:32.737Z,84.15
2018-07-11T01:55:01.825Z,84.30
2018-07-11T01:57:30.618Z,84.18
2018-07-11T02:00:00.024Z,84.39
2018-07-11T02:02:28.770Z,84.51
2018-07-11T02:04:57.518Z,84.68
2018-07-11T02:07:26.584Z,84.86
2018-07-11T02:09:55.563Z,85.00
2018-07-11T02:12:24.876Z,85.50
2018-07-11T02:14:59.200Z,85.20
2018-07-11T02:17:28.251Z,85.70
2018-07-11T02:19:57.276Z,86.27
2018-07-11T02:22:26.388Z,86.27
2018-07-11T02:24:55.681Z,86.28
2018-07-11T02:27:24.436Z,86.22
2018-07-11T02:29:53.177Z,85.77
2018-07-11T02:32:21.963Z,86.52
2018-07-11T02:34:50.801Z,86.49
2018-07-11T02:37:20.907Z,87.59
2018-07-11T02:39:50.088Z,87.37
2018-07-11T02:42:19.447Z,87.67
2018-07-11T02:44:48.220Z,87.49
2018-07-11T02:47:22.603Z,87.28
2018-07-11T02:49:51.384Z,87.34
2018-07-11T02:52:20.164Z,87.46
2018-07-11T02:54:49.271Z,87.19
2018-07-11T02:57:18.009Z,87.01
2018-07-11T02:59:47.388Z,87.42
2018-07-11T03:02:16.831Z,86.87
2018-07-11T03:04:46.477Z,87.09
2018-07-11T03:07:15.746Z,86.85
2018-07-11T03:09:44.483Z,86.65
2018-07-11T03:12:13.252Z,86.65
2018-07-11T03:14:44.846Z,86.31
2018-07-11T03:17:14.220Z,86.35
2018-07-11T03:19:43.217Z,86.02
2018-07-11T03:22:12.161Z,86.14
2018-07-11T03:24:42.013Z,86.08
2018-07-11T03:27:11.172Z,85.92
2018-07-11T03:29:40.222Z,86.55
2018-07-11T03:32:09.467Z,86.80
2018-07-11T03:34:38.503Z,86.98
2018-07-11T03:37:08.034Z,87.33
2018-07-11T03:39:36.848Z,86.90
2018-07-11T03:42:05.696Z,86.81
2018-07-11T03:44:34.848Z,86.29
2018-07-11T03:47:04.181Z,86.42
2018-07-11T03:49:33.608Z,85.66
2018-07-11T03:52:02.680Z,85.60
2018-07-11T03:54:32.466Z,85.83
2018-07-11T03:57:01.499Z,86.11
2018-07-11T03:59:30.992Z,86.07
2018-07-11T04:01:59.860Z,85.79
2018-07-11T04:04:29.097Z,85.81
2018-07-11T04:06:57.930Z,85.99
2018-07-11T04:09:26.975Z,86.57
2018-07-11T04:11:56.172Z,86.40
2018-07-11T04:14:25.399Z,86.88
2018-07-11T04:16:54.555Z,87.13
2018-07-11T04:19:23.518Z,87.29
2018-07-11T04:21:53.130Z,87.44
2018-07-11T04:24:21.999Z,87.27
2018-07-11T04:26:51.280Z,87.97
2018-07-11T04:29:20.826Z,88.02
2018-07-11T04:31:49.609Z,88.37
2018-07-11T04:34:18.447Z,89.03
2018-07-11T04:36:47.688Z,88.85
2018-07-11T04:39:16.968Z,88.99
2018-07-11T04:41:45.760Z,89.31
2018-07-11T04:44:14.938Z,89.83
2018-07-11T04:46:44.555Z,90.09
2018-07-11T04:49:13.987Z,90.38
2018-07-11T04:51:43.128Z,89.99
2018-07-11T04:54:11.899Z,90.29
2018-07-11T04:56:41.021Z,90.50
2018-07-11T04:59:09.857Z,91.45
2018-07-11T05:01:39.234Z,92.14
2018-07-11T05:04:08.389Z,92.60
2018-07-11T05:06:37.486Z,93.37
2018-07-11T05:09:07.209Z,93.10
2018-07-11T05:11:36.013Z,92.99
2018-07-11T05:14:05.216Z,93.83
2018-07-11T05:16:34.342Z,94.77
2018-07-11T05:19:03.467Z,94.83
2018-07-11T05:21:32.296Z,95.75
2018-07-11T05:24:01.707Z,95.58
2018-07-11T05:26:30.849Z,96.35
2018-07-11T05:29:00.254Z,96.38
2018-07-11T05:31:29.116Z,96.44
2018-07-11T05:33:57.936Z,96.67
2018-07-11T05:36:27.340Z,96.72
2018-07-11T05:38:56.455Z,96.58
2018-07-11T05:41:25.549Z,96.60
2018-07-11T05:43:54.591Z,95.96
2018-07-11T05:46:24.147Z,95.96
2018-07-11T05:48:53.216Z,95.86
2018-07-11T05:51:22.304Z,96.07
2018-07-11T05:53:51.958Z,95.24
2018-07-11T05:56:21.345Z,95.17
2018-07-11T05:58:50.155Z,95.18
2018-07-11T06:01:19.272Z,94.51
2018-07-11T06:03:48.301Z,94.76
2018-07-11T06:06:17.510Z,94.34
2018-07-11T06:08:46.656Z,94.05
2018-07-11T06:11:22.522Z,94.10
2018-07-11T06:13:52.719Z,93.20
2018-07-11T06:16:22.036Z,93.32
2018-07-11T06:18:51.167Z,92.51
2018-07-11T06:21:21.010Z,92.59
2018-07-11T06:23:50.147Z,92.42
2018-07-11T06:26:19.516Z,92.42
2018-07-11T06:28:48.856Z,92.61
2018-07-11T06:31:17.960Z,92.54
2018-07-11T06:33:47.098Z,92.02
2018-07-11T06:36:16.202Z,92.07
2018-07-11T06:38:45.551Z,91.23
2018-07-11T06:41:14.431Z,91.36
2018-07-11T06:43:43.362Z,90.90
2018-07-11T06:46:12.170Z,90.95
2018-07-11T06:48:41.202Z,90.77
2018-07-11T06:51:10.128Z,90.74
2018-07-11T06:53:38.919Z,90.39
2018-07-11T06:56:08.062Z,90.58
2018-07-11T06:58:37.374Z,90.66
2018-07-11T07:01:06.188Z,91.23
2018-07-11T07:03:35.449Z,90.95
2018-07-11T07:06:04.529Z,91.03
2018-07-11T07:08:33.606Z,91.34
2018-07-11T07:11:02.875Z,90.87
2018-07-11T07:13:31.616Z,91.64
2018-07-11T07:16:00.705Z,90.53
2018-07-11T07:18:30.051Z,90.27
2018-07-11T07:20:59.963Z,89.83
2018-07-11T07:23:28.697Z,89.05
2018-07-11T07:25:57.815Z,88.42
2018-07-11T07:28:26.630Z,88.02
2018-07-11T07:30:55.665Z,87.94
2018-07-11T07:33:24.895Z,86.69
2018-07-11T07:35:53.649Z,85.78
2018-07-11T07:38:22.691Z,85.33
2018-07-11T07:40:51.722Z,85.00
2018-07-11T07:43:21.070Z,82.43
2018-07-11T07:45:50.118Z,82.11
2018-07-11T07:48:18.951Z,82.69
2018-07-11T07:50:49.372Z,81.47
2018-07-11T07:53:18.572Z,81.49
2018-07-11T07:55:47.684Z,82.17
2018-07-11T07:58:16.667Z,82.26
2018-07-11T08:00:45.473Z,81.31
2018-07-11T08:03:14.753Z,80.40
2018-07-11T08:05:43.893Z,81.28
2018-07-11T08:08:12.967Z,81.77
2018-07-11T08:10:42.261Z,81.19
2018-07-11T08:13:11.486Z,81.17
2018-07-11T08:15:40.587Z,81.43
2018-07-11T08:18:09.637Z,80.90
2018-07-11T08:20:38.636Z,81.38
2018-07-11T08:23:19.494Z,79.91
2018-07-11T08:26:01.349Z,80.34
2018-07-11T08:30:01.368Z,80.83
2018-07-11T08:32:57.455Z,81.35
2018-07-11T08:36:14.481Z,81.36
2018-07-11T08:41:31.266Z,82.21
2018-07-11T08:48:22.593Z,81.60
2018-07-11T08:52:05.180Z,82.19
2018-07-11T08:55:45.413Z,80.87
2018-07-11T08:58:25.360Z,80.92
2018-07-11T09:01:05.381Z,80.18
2018-07-11T09:03:51.526Z,80.12
2018-07-11T09:09:31.467Z,80.15
2018-07-11T09:14:16.739Z,80.04
2018-07-11T09:17:57.021Z,80.03
2018-07-11T09:20:48.387Z,79.69
2018-07-11T09:25:32.172Z,78.18
2018-07-11T09:28:00.975Z,77.26
2018-07-11T09:30:30.312Z,77.05
2018-07-11T09:33:03.748Z,77.25
2018-07-11T09:35:33.062Z,76.72
2018-07-11T09:38:02.460Z,77.57
2018-07-11T09:40:32.184Z,77.86
2018-07-11T09:43:02.667Z,76.54
2018-07-11T09:45:31.731Z,76.51
2018-07-11T09:48:00.584Z,76.55
2018-07-11T09:50:29.481Z,74.21
2018-07-11T09:52:58.736Z,73.47
2018-07-11T09:55:27.476Z,73.20
2018-07-11T09:57:56.269Z,72.18
2018-07-11T10:00:30.140Z,72.74
2018-07-11T10:02:58.926Z,71.53
2018-07-11T10:05:27.705Z,72.58
2018-07-11T10:07:56.812Z,70.68
2018-07-11T10:10:25.948Z,70.75
2018-07-11T10:12:55.304Z,70.71
2018-07-11T10:15:24.021Z,70.63
2018-07-11T10:17:53.451Z,70.21
2018-07-11T10:20:22.255Z,71.66
2018-07-11T10:22:51.160Z,71.10
2018-07-11T10:25:20.567Z,69.46
2018-07-11T10:27:59.174Z,67.57
2018-07-11T10:30:28.123Z,66.70
2018-07-11T10:32:57.472Z,66.49
2018-07-11T10:35:26.501Z,65.70
2018-07-11T10:37:55.353Z,65.33
2018-07-11T10:40:24.707Z,62.97
2018-07-11T10:42:53.765Z,62.11
2018-07-11T10:45:22.509Z,62.40
2018-07-11T10:47:51.539Z,62.01
2018-07-11T10:50:20.884Z,61.15
2018-07-11T10:52:49.883Z,61.32
2018-07-11T10:55:18.705Z,61.71
2018-07-11T10:57:48.136Z,61.92
2018-07-11T11:00:35.965Z,60.72
2018-07-11T11:02:51.875Z,58.96
2018-07-11T11:05:21.145Z,59.47
2018-07-11T11:07:51.464Z,57.93
2018-07-11T11:10:20.579Z,57.23
2018-07-11T11:12:49.525Z,55.52
2018-07-11T11:15:18.418Z,57.19
2018-07-11T11:17:47.431Z,56.61
2018-07-11T11:20:16.468Z,56.68
2018-07-11T11:22:45.246Z,57.42
2018-07-11T11:25:14.377Z,57.56
2018-07-11T11:27:43.111Z,58.04
2018-07-11T11:30:12.623Z,57.57
2018-07-11T11:32:41.793Z,57.22
2018-07-11T11:35:11.332Z,58.43
2018-07-11T11:37:40.616Z,58.51
2018-07-11T11:40:10.134Z,57.61
2018-07-11T11:42:39.516Z,58.64
2018-07-11T11:45:08.346Z,59.19
2018-07-11T11:47:37.077Z,58.66
2018-07-11T11:50:06.430Z,59.16
2018-07-11T11:52:35.984Z,59.13
2018-07-11T11:55:05.032Z,59.08
2018-07-11T11:57:34.118Z,60.14
2018-07-11T12:00:03.143Z,59.51
2018-07-11T12:02:31.893Z,59.33
2018-07-11T12:05:01.342Z,60.46
2018-07-11T12:07:30.413Z,60.24
2018-07-11T12:09:59.519Z,60.17
2018-07-11T12:12:28.684Z,60.22
2018-07-11T12:14:58.027Z,60.19
2018-07-11T12:17:27.480Z,60.68
2018-07-11T12:19:56.616Z,60.16
2018-07-11T12:22:26.771Z,59.84
2018-07-11T12:24:55.981Z,60.50
2018-07-11T12:27:25.242Z,59.87
2018-07-11T12:29:54.322Z,59.79
2018-07-11T12:32:23.468Z,60.29
2018-07-11T12:34:52.462Z,60.55
2018-07-11T12:37:21.720Z,60.25
2018-07-11T12:39:51.963Z,61.06
2018-07-11T12:42:20.831Z,60.60
2018-07-11T12:44:49.599Z,59.74
2018-07-11T12:47:24.000Z,59.78
2018-07-11T12:49:53.067Z,60.35
2018-07-11T12:52:21.849Z,59.85
2018-07-11T12:54:51.121Z,60.46
2018-07-11T12:57:19.936Z,61.02
2018-07-11T12:59:49.304Z,60.90
2018-07-11T13:02:19.315Z,61.37
2018-07-11T13:04:48.407Z,60.78
2018-07-11T13:07:17.149Z,61.09
2018-07-11T13:09:46.749Z,60.87
2018-07-11T13:12:15.503Z,61.21
2018-07-11T13:14:44.239Z,61.97
2018-07-11T13:17:13.217Z,61.75
2018-07-11T13:19:41.997Z,61.61
2018-07-11T13:22:10.797Z,61.69
2018-07-11T13:24:40.134Z,61.56
2018-07-11T13:27:09.505Z,62.07
2018-07-11T13:29:38.271Z,61.99
2018-07-11T13:32:06.999Z,62.47
2018-07-11T13:34:36.487Z,62.04
2018-07-11T13:37:05.546Z,62.21
2018-07-11T13:39:34.535Z,62.12
2018-07-11T13:42:03.783Z,62.84
2018-07-11T13:44:32.560Z,62.58
2018-07-11T13:47:04.386Z,63.02
2018-07-11T13:49:33.369Z,63.18
2018-07-11T13:52:02.579Z,62.54
2018-07-11T13:54:32.021Z,62.45
2018-07-11T13:57:00.787Z,62.52
2018-07-11T13:59:29.518Z,62.40
2018-07-11T14:01:58.579Z,62.92
2018-07-11T14:04:27.627Z,63.21
2018-07-11T14:06:57.066Z,62.61
2018-07-11T14:09:25.875Z,63.03
2018-07-11T14:11:55.173Z,63.75
2018-07-11T14:14:23.935Z,63.66
2018-07-11T14:16:52.679Z,64.01
2018-07-11T14:19:21.827Z,63.75
2018-07-11T14:21:50.603Z,64.50
2018-07-11T14:24:19.958Z,64.48
2018-07-11T14:26:48.937Z,63.88
2018-07-11T14:29:17.905Z,63.00
2018-07-11T14:31:46.648Z,63.70
2018-07-11T14:34:15.904Z,62.81
2018-07-11T14:36:44.684Z,64.86
2018-07-11T14:39:14.026Z,65.07
2018-07-11T14:41:42.772Z,65.13
2018-07-11T14:44:12.091Z,65.56
2018-07-11T14:46:40.840Z,65.94
2018-07-11T14:49:09.585Z,65.71
2018-07-11T14:51:38.649Z,65.63
2018-07-11T14:54:07.839Z,64.25
2018-07-11T14:56:37.195Z,63.97
2018-07-11T14:59:06.131Z,63.12
2018-07-11T15:01:34.865Z,62.80
2018-07-11T15:04:03.592Z,63.41
2018-07-11T15:06:32.721Z,62.86
2018-07-11T15:09:01.941Z,62.28
2018-07-11T15:11:30.539Z,61.83
2018-07-11T15:13:59.591Z,61.93
2018-07-11T15:16:28.663Z,61.21
2018-07-11T15:18:57.739Z,61.10
2018-07-11T15:21:27.509Z,61.03
2018-07-11T15:23:56.519Z,58.81
2018-07-11T15:26:26.135Z,58.69
2018-07-11T15:28:55.068Z,58.09
2018-07-11T15:31:24.070Z,58.49
2018-07-11T15:33:54.783Z,59.04
2018-07-11T15:36:23.534Z,57.89
2018-07-11T15:38:52.334Z,57.60
2018-07-11T15:41:21.082Z,59.16
2018-07-11T15:43:49.820Z,57.16
2018-07-11T15:46:18.607Z,56.35
2018-07-11T15:48:48.087Z,56.63
2018-07-11T15:51:16.831Z,57.50
2018-07-11T15:53:45.616Z,57.14
2018-07-11T15:56:14.349Z,57.89
2018-07-11T15:58:44.729Z,56.96
2018-07-11T16:01:13.834Z,58.05
2018-07-11T16:03:47.111Z,57.83
2018-07-11T16:06:17.460Z,57.83
2018-07-11T16:08:48.842Z,57.97
2018-07-11T16:11:17.708Z,58.10
2018-07-11T16:13:46.631Z,59.22
2018-07-11T16:16:15.537Z,60.67
2018-07-11T16:18:44.319Z,60.46
2018-07-11T16:21:13.602Z,60.59
2018-07-11T16:23:42.956Z,60.71
2018-07-11T16:26:11.720Z,60.06
2018-07-11T16:28:41.218Z,60.09
2018-07-11T16:31:10.044Z,58.73
2018-07-11T16:33:39.055Z,59.37
2018-07-11T16:36:08.147Z,59.92
2018-07-11T16:38:37.466Z,60.57
2018-07-11T16:41:07.071Z,61.26
2018-07-11T16:43:36.682Z,62.18
2018-07-11T16:46:05.795Z,62.08
2018-07-11T16:48:34.559Z,62.78
2018-07-11T16:51:03.343Z,62.80
2018-07-11T16:53:32.888Z,63.00
2018-07-11T16:56:01.869Z,62.68
2018-07-11T16:58:33.659Z,62.03
2018-07-11T17:01:02.679Z,61.68
2018-07-11T17:03:33.051Z,61.56
2018-07-11T17:06:06.104Z,60.47
2018-07-11T17:08:37.243Z,60.47
2018-07-11T17:11:14.266Z,60.62
2018-07-11T17:13:47.533Z,60.91
2018-07-11T17:16:16.590Z,60.69
2018-07-11T17:18:50.791Z,61.75
2018-07-11T17:21:31.265Z,61.26
2018-07-11T17:24:05.312Z,61.38
2018-07-11T17:26:34.132Z,61.23
2018-07-11T17:29:04.111Z,61.19
2018-07-11T17:31:34.762Z,62.17
2018-07-11T17:34:03.754Z,61.33
2018-07-11T17:36:34.866Z,61.86
2018-07-11T17:39:05.512Z,62.04
2018-07-11T17:41:35.828Z,61.51
2018-07-11T17:44:04.736Z,60.25
2018-07-11T17:46:37.104Z,60.84
2018-07-11T17:49:14.919Z,60.82
2018-07-11T17:51:47.803Z,60.67
2018-07-11T17:54:18.085Z,60.49
2018-07-11T17:56:57.218Z,60.68
2018-07-11T17:59:42.250Z,59.99
2018-07-11T18:02:21.795Z,60.58
2018-07-11T18:05:59.008Z,60.52
2018-07-11T18:08:35.774Z,60.51
2018-07-11T18:11:05.257Z,61.69
2018-07-11T18:13:39.063Z,61.21
2018-07-11T18:16:17.615Z,61.78
2018-07-11T18:20:31.266Z,62.44
2018-07-11T18:23:11.758Z,63.43
2018-07-11T18:25:50.162Z,63.59
2018-07-11T18:28:30.142Z,63.99
2018-07-11T18:31:46.796Z,63.63
2018-07-11T18:35:28.526Z,63.68
2018-07-11T18:39:04.889Z,64.22
2018-07-11T18:41:38.109Z,64.65
2018-07-11T18:45:26.724Z,64.24
2018-07-11T18:48:09.535Z,64.17
2018-07-11T18:50:46.025Z,64.44
2018-07-11T18:54:13.263Z,64.80
2018-07-11T18:57:08.306Z,64.51
2018-07-11T19:00:58.645Z,64.57
2018-07-11T19:03:44.009Z,64.29
2018-07-11T19:06:19.016Z,64.90
2018-07-11T19:09:02.743Z,64.76
2018-07-11T19:11:59.837Z,64.68
2018-07-11T19:15:35.335Z,64.39
2018-07-11T19:18:14.356Z,64.28
2018-07-11T19:20:56.177Z,64.89
2018-07-11T19:23:38.007Z,64.96
2018-07-11T19:26:20.975Z,65.45
2018-07-11T19:28:54.975Z,65.83
2018-07-11T19:32:33.884Z,65.41
2018-07-11T19:35:50.402Z,66.01
2018-07-11T19:38:41.672Z,66.41
2018-07-11T19:41:21.469Z,66.56
2018-07-11T19:44:56.167Z,67.47
2018-07-11T19:47:51.234Z,67.42
2018-07-11T19:51:38.486Z,67.93
2018-07-11T19:56:26.605Z,68.41
2018-07-11T19:58:55.938Z,69.17
2018-07-11T20:01:25.581Z,69.95
2018-07-11T20:03:54.794Z,70.91
2018-07-11T20:06:23.716Z,71.01
2018-07-11T20:08:53.268Z,71.14
2018-07-11T20:11:22.751Z,71.56
2018-07-11T20:13:54.256Z,72.20
2018-07-11T20:16:23.682Z,72.55
2018-07-11T20:18:52.848Z,73.28
2018-07-11T20:21:23.584Z,73.68
2018-07-11T20:23:52.610Z,73.90
2018-07-11T20:26:21.801Z,73.84
2018-07-11T20:28:52.754Z,73.93
2018-07-11T20:31:21.544Z,74.19
2018-07-11T20:33:50.539Z,74.80
2018-07-11T20:36:19.891Z,75.71
2018-07-11T20:38:48.680Z,75.57
2018-07-11T20:41:17.705Z,76.00
2018-07-11T20:43:47.030Z,75.78
2018-07-11T20:46:16.599Z,76.05
2018-07-11T20:48:46.101Z,76.88
2018-07-11T20:51:15.874Z,76.64
2018-07-11T20:53:45.112Z,76.84
2018-07-11T20:56:13.971Z,76.33
2018-07-11T20:58:53.905Z,76.72
2018-07-11T21:01:33.761Z,76.86
2018-07-11T21:04:23.754Z,76.90
2018-07-11T21:07:31.481Z,76.76
2018-07-11T21:10:11.447Z,76.86
2018-07-11T21:12:47.565Z,77.29
2018-07-11T21:15:25.423Z,76.92
2018-07-11T21:18:07.012Z,77.07
2018-07-11T21:20:36.124Z,76.39
2018-07-11T21:23:05.692Z,76.44
2018-07-11T21:25:35.403Z,76.58
2018-07-11T21:28:04.604Z,76.37
2018-07-11T21:30:33.483Z,76.85
2018-07-11T21:33:03.000Z,76.96
2018-07-11T21:35:32.240Z,77.06
2018-07-11T21:38:01.649Z,77.24
2018-07-11T21:40:31.219Z,77.35
2018-07-11T21:43:00.181Z,77.17
2018-07-11T21:45:30.020Z,77.93
2018-07-11T21:47:59.208Z,77.38
2018-07-11T21:50:28.179Z,78.10
2018-07-11T21:52:57.444Z,78.23
2018-07-11T21:55:26.706Z,77.79
2018-07-11T21:57:55.613Z,78.03
2018-07-11T22:00:33.990Z,77.72
2018-07-11T22:03:03.629Z,78.60
2018-07-11T22:05:33.680Z,78.05
2018-07-11T22:08:03.149Z,78.36
2018-07-11T22:10:32.052Z,78.48
2018-07-11T22:13:01.376Z,79.17
2018-07-11T22:15:30.744Z,79.23
2018-07-11T22:18:11.202Z,79.07
2018-07-11T22:20:38.896Z,79.26
2018-07-11T22:23:06.616Z,79.72
2018-07-11T22:25:34.569Z,80.64
2018-07-11T22:28:02.592Z,80.77
2018-07-11T22:30:30.574Z,81.11
2018-07-11T22:32:58.515Z,81.02
2018-07-11T22:35:26.164Z,80.92
2018-07-11T22:37:53.729Z,81.24
2018-07-11T22:40:21.608Z,81.73
2018-07-11T22:42:50.217Z,81.84
2018-07-11T22:45:17.785Z,82.43
2018-07-11T22:47:45.608Z,82.10
2018-07-11T22:50:13.465Z,81.83
2018-07-11T22:52:41.709Z,81.58
2018-07-11T22:55:09.629Z,82.38
2018-07-11T22:57:37.203Z,82.51
2018-07-11T23:00:05.112Z,83.11
2018-07-11T23:02:32.706Z,82.76
2018-07-11T23:05:00.271Z,83.26
2018-07-11T23:07:27.883Z,83.27
2018-07-11T23:09:55.959Z,82.94
2018-07-11T23:12:23.549Z,82.98
2018-07-11T23:14:51.139Z,83.71
2018-07-11T23:17:23.900Z,83.81
2018-07-11T23:19:51.762Z,83.83
2018-07-11T23:22:19.652Z,83.29
2018-07-11T23:24:47.512Z,83.74
2018-07-11T23:27:15.699Z,83.48
2018-07-11T23:29:43.246Z,84.03
2018-07-11T23:32:10.771Z,84.26
2018-07-11T23:34:38.673Z,84.05
2018-07-11T23:37:06.514Z,84.33
2018-07-11T23:39:34.070Z,84.09
2018-07-11T23:42:01.624Z,83.60
2018-07-11T23:44:29.835Z,83.69
2018-07-11T23:46:57.704Z,83.86
2018-07-11T23:49:25.234Z,83.80
2018-07-11T23:51:53.251Z,84.33
2018-07-11T23:54:20.827Z,83.93
2018-07-11T23:56:49.003Z,84.33
2018-07-11T23:59:16.548Z,84.02
